Tiempo atmosférico en la estación meteorológica de Somosierra, Madrid (1450 m.)



Fecha
DESCASC
Temp. máxima en grados centígrados (hora)
DESCASC
Temp. mínima en grados centígrados (hora)
DESCASC
Temp. media en grados centígrados
DESCASC
Racha de viento máxima en m/sg (hora)
DESCASC
Velocidad máxima media en intervalos de 10 minutos(hora)
DESCASC
Precipitaciones diarias en mm
DESCASC
Precipitaciones de 00:00 a 06:00 en mm
DESCASC
Precipitaciones de 06:00 a 12:00 en mm
DESCASC
Precipitaciones de 12:00 a 18:00 en mm
DESCASC
Precipitaciones de 18:00 a 24:00 en mm
DESCASC
05-04-2020 12.7 (18:30) 4 (07:50) 8.3 -- (--) -- (--) 0 0 0 0 0
04-04-2020 11.6 (15:40) 0.9 (08:30) 6.3 -- (--) -- (--) 0 0 0 0 0
03-04-2020 12.4 (17:50) -2.2 (04:50) 5.1 -- (--) -- (--) 0.1 0 0.1 0 0
02-04-2020 8.6 (18:30) -1.3 (-00:0) 3.7 -- (--) -- (--) 1.3 0 0 0.2 1.1
01-04-2020 7.2 (17:30) 1.3 (00:00) 4.2 -- (--) -- (--) 4.4 1.9 0.8 1.7 0
31-03-2020 4.1 (19:40) -3.6 (-00:0) 0.3 -- (--) -- (--) 29.7 0 0.1 12.5 17.1
30-03-2020 2 (00:10) -3.8 (-00:0) -0.9 -- (--) -- (--) 0.8 0 0 0.8 0
29-03-2020 13.1 (16:30) 1.6 (00:00) 7.4 -- (--) -- (--) 0 0 0 0 0
28-03-2020 11.5 (14:50) -1.3 (-00:0) 5.1 -- (--) -- (--) 0 0 0 0 0
27-03-2020 7.4 (15:40) -3 (-00:0) 2.2 -- (--) -- (--) 0 0 0 0 0
26-03-2020 7.2 (16:00) -3.6 (-00:0) 1.8 -- (--) -- (--) -- -- -- 0 0
25-03-2020 11.7 (15:50) 0 (00:00) 5.8 -- (--) -- (--) -- -- -- -- --
24-03-2020 10.6 (17:00) 1.7 (00:00) 6.2 2.22 (02:40) 0 (00:10) -- -- -- -- --
23-03-2020 10.1 (16:00) 3.2 (00:00) 6.7 7.78 (11:20) 2.5 (11:10) -- -- -- -- --
22-03-2020 7.1 (17:50) 1.3 (07:00) 4.2 0 (17:30) 0 (00:10) -- -- -- -- --
21-03-2020 4.7 (00:20) 1.6 (00:00) 3.1 13.89 (05:50) 6.11 (03:00) -- -- -- -- --
20-03-2020 6 (15:00) 3.2 (00:00) 4.6 9.17 (00:10) 5.28 (00:10) -- -- -- -- --
19-03-2020 11.9 (15:20) 4.2 (00:00) 8 9.72 (23:59) 4.72 (23:59) -- -- -- -- --
18-03-2020 14.2 (13:50) 5.1 (00:00) 9.6 6.67 (06:30) 3.06 (14:50) -- -- -- -- --
17-03-2020 10.5 (15:20) -0.5 (-00:0) 5 13.33 (13:00) 5.56 (15:30) -- -- -- -- --
16-03-2020 4 (00:40) -1.4 (-00:0) 1.3 8.06 (03:00) 1.67 (03:00) -- -- -- -- --
15-03-2020 14.1 (15:00) 3.6 (00:00) 8.9 11.94 (16:00) 6.39 (16:50) -- -- -- -- --
14-03-2020 15.9 (16:30) 2.4 (00:00) 9.1 0 (00:10) 0 (00:10) -- -- -- -- --
13-03-2020 15.2 (15:40) 6.2 (23:40) 10.7 0.83 (13:20) 0 (00:10) -- -- -- -- --
12-03-2020 20.1 (15:10) 9.6 (00:00) 14.9 8.61 (15:30) 5 (15:30) -- -- -- -- --
11-03-2020 22.6 (16:50) 6.8 (00:00) 14.7 0 (11:40) 0 (00:10) -- -- -- -- --
10-03-2020 18.5 (17:50) 2.1 (00:00) 10.3 7.22 (00:20) 2.78 (00:20) -- -- -- -- --
09-03-2020 8.9 (16:20) 0.2 (00:00) 4.5 11.39 (02:10) 4.17 (07:30) -- -- -- -- --

Gráficas

Temp. máximas Temp. mínimas Temp. medias Precipitaciones Rachas de viento máximas Velocidades máximas media en intervalos de 10 minutos

Datos horarios

Fecha y hora oficial Temperatura (ºC) Velocidad del viento (km/h) Dirección del viento Racha (km/h) Dirección de racha Precipitación (mm) Presión (hPa) Tendencia (hPa) Humedad (%)
2020-04-07 23:00:00 8.4 -- -- -- -- 2.1 861.9 1.1 98
2020-04-07 22:00:00 8.2 -- -- -- -- 0 861.6 1.1 98
2020-04-07 21:00:00 8.1 -- -- -- -- 0 861 0.8 97
2020-04-07 20:00:00 9.5 -- -- -- -- 0 860.8 1 96
2020-04-07 19:00:00 10.1 -- -- -- -- 1 860.5 0.1 95
2020-04-07 18:00:00 11.9 -- -- -- -- 0.1 860.2 -0.4 73
2020-04-07 17:00:00 12.2 -- -- -- -- 0 859.8 -0.9 73
2020-04-07 16:00:00 11.5 -- -- -- -- 0 860.4 -0.6 76
2020-04-07 15:00:00 12.7 -- -- -- -- 0 860.6 -0.7 70
2020-04-07 14:00:00 11.5 -- -- -- -- 0 860.7 -0.6 78
2020-04-07 13:00:00 9.8 -- -- -- -- 0 861 0.4 85
2020-04-07 12:00:00 8.9 -- -- -- -- 0 861.3 0.9 92
2020-04-07 11:00:00 7.5 -- -- -- -- 0 861.3 1.2 96
2020-04-07 10:00:00 7.4 -- -- -- -- 0 860.6 0.8 99
2020-04-07 09:00:00 6.7 -- -- -- -- 0 860.4 1.3 99
2020-04-07 08:00:00 6.5 -- -- -- -- 0 860.1 0.3 99
2020-04-07 07:00:00 6.2 -- -- -- -- 0 859.8 -0.6 98
2020-04-07 06:00:00 6.6 -- -- -- -- 0 859.1 -1.1 96
2020-04-07 05:00:00 6.8 -- -- -- -- 0.9 859.8 -0.1 99
2020-04-07 04:00:00 6.7 -- -- -- -- 0.1 860.4 0.6 99
2020-04-07 03:00:00 6.7 -- -- -- -- 0.4 860.2 -0.3 96
2020-04-07 02:00:00 7.2 -- -- -- -- 0 859.9 -0.5 88
2020-04-07 01:00:00 7.5 -- -- -- -- 0 859.8 0 84
2020-04-07 00:00:00 7.3 -- -- -- -- 0 860.5 1 86
2020-04-06 23:00:00 7 -- -- -- -- 0 860.4 1.7 88
2020-04-06 22:00:00 7.6 -- -- -- -- 0 859.8 1.3 93
2020-04-06 21:00:00 7.8 -- -- -- -- 0.1 859.5 1 96
2020-04-06 20:00:00 9.2 -- -- -- -- 0.1 858.7 0.5 77
2020-04-06 19:00:00 10.1 -- -- -- -- 0 858.5 -0.1 81
2020-04-06 18:00:00 9.2 -- -- -- -- 0.6 858.5 0.1 87
2020-04-06 17:00:00 11 -- -- -- -- 0 858.2 0.1 71
2020-04-06 16:00:00 11.3 -- -- -- -- 0 858.6 0.2 78
2020-04-06 15:00:00 10.6 -- -- -- -- 0 858.4 0.2 76
2020-04-06 14:00:00 10.1 -- -- -- -- 0 858.1 0.3 86
2020-04-06 13:00:00 10.4 -- -- -- -- 0 858.4 1.6 94
2020-04-06 12:00:00 8.2 -- -- -- -- 0.1 858.2 1.7 99
2020-04-06 11:00:00 8 -- -- -- -- 1 857.8 1.7 99
2020-04-06 10:00:00 7.8 -- -- -- -- 0.7 856.8 1.2 99
2020-04-06 09:00:00 7.6 -- -- -- -- 0 856.5 1.5 99
2020-04-06 08:00:00 7.7 -- -- -- -- 0 856.1 0.5 99
2020-04-06 07:00:00 7.6 -- -- -- -- 0.1 855.6 -0.1 99
2020-04-06 06:00:00 7.7 -- -- -- -- 1.3 855 -0.5 99
2020-04-06 05:00:00 7.8 -- -- -- -- 0 855.6 0 98
2020-04-06 04:00:00 7.8 -- -- -- -- 0 855.7 0 99
2020-04-06 03:00:00 8 -- -- -- -- 0.5 855.5 -0.2 96
2020-04-06 02:00:00 8.2 -- -- -- -- 1.1 855.6 0.3 92
2020-04-06 01:00:00 8.2 -- -- -- -- 0.7 855.7 0.5 90
2020-04-06 00:00:00 9.6 -- -- -- -- 0 855.7 1.1 74
2020-04-05 23:00:00 8.9 -- -- -- -- 0 855.3 1 74
2020-04-05 22:00:00 8.9 -- -- -- -- 0 855.2 0.6 74
2020-04-05 21:00:00 9.5 -- -- -- -- 0 854.6 0.6 72
2020-04-05 20:00:00 10.5 -- -- -- -- 0 854.3 -0.4 67
2020-04-05 19:00:00 10.5 -- -- -- -- 0 854.6 0 66
2020-04-05 18:00:00 10.8 -- -- -- -- 0 854 -0.8 64
2020-04-05 17:00:00 11.2 -- -- -- -- 0 854.7 -0.5 63
2020-04-05 16:00:00 11 -- -- -- -- 0 854.6 -0.6 61
2020-04-05 15:00:00 10.6 -- -- -- -- 0 854.8 -0.6 64
2020-04-05 14:00:00 10 -- -- -- -- 0 855.2 0 66
2020-04-05 13:00:00 8.4 -- -- -- -- 0 855.2 0.1 78
2020-04-05 12:00:00 6.5 -- -- -- -- 0 855.4 0.5 87
2020-04-05 11:00:00 6.1 -- -- -- -- 0 855.2 0.5 91
2020-04-05 10:00:00 4.9 -- -- -- -- 0 855.1 0.9 96
2020-04-05 09:00:00 4.3 -- -- -- -- 0 854.9 0.8 99
2020-04-05 08:00:00 4.1 -- -- -- -- 0 854.7 0.8 99
2020-04-05 07:00:00 4.3 -- -- -- -- 0 854.2 0.5 99
2020-04-05 06:00:00 4.4 -- -- -- -- 0 854.1 0.6 98
2020-04-05 05:00:00 4.5 -- -- -- -- 0 853.9 0 97
2020-04-05 04:00:00 5 -- -- -- -- 0 853.7 0.2 92
2020-04-05 03:00:00 5.3 -- -- -- -- 0 853.5 -0.3 88
2020-04-05 02:00:00 5.5 -- -- -- -- 0 853.9 -0.3 82
2020-04-05 01:00:00 6 -- -- -- -- 0 853.5 -0.2 78
2020-04-05 00:00:00 6.4 -- -- -- -- 0 853.8 0.5 76
2020-04-04 23:00:00 7.1 -- -- -- -- 0 854.2 0.9 72
2020-04-04 22:00:00 7.4 -- -- -- -- 0 853.7 1.2 66
2020-04-04 21:00:00 7.7 -- -- -- -- 0 853.3 1.1 64
2020-04-04 20:00:00 8.4 -- -- -- -- 0 853.3 1.1 59
2020-04-04 19:00:00 9.2 -- -- -- -- 0 852.5 -0.3 56
2020-04-04 18:00:00 9.9 -- -- -- -- 0 852.2 -0.5 56
2020-04-04 17:00:00 10.8 -- -- -- -- 0 852.2 -0.6 54
2020-04-04 16:00:00 10.8 -- -- -- -- 0 852.8 -0.5 53
2020-04-04 15:00:00 10.3 -- -- -- -- 0 852.7 -1.3 56
2020-04-04 14:00:00 9.5 -- -- -- -- 0 852.8 -1 57
2020-04-04 13:00:00 9.4 -- -- -- -- 0 853.3 -0.9 61
2020-04-04 12:00:00 7.5 -- -- -- -- 0 854 0.3 73
2020-04-04 11:00:00 6 -- -- -- -- 0 853.8 0.1 72
2020-04-04 10:00:00 4.7 -- -- -- -- 0 854.2 1.1 75
2020-04-04 09:00:00 1.4 -- -- -- -- 0 853.7 0.2 87
2020-04-04 08:00:00 1.6 -- -- -- -- 0 853.7 0 78
2020-04-04 07:00:00 1.5 -- -- -- -- 0 853.1 -0.8 80
2020-04-04 06:00:00 2.1 -- -- -- -- 0 853.5 -1 75
2020-04-04 05:00:00 3.7 -- -- -- -- 0 853.7 -0.6 66
2020-04-04 04:00:00 3.3 -- -- -- -- 0 853.9 -0.9 71
2020-04-04 03:00:00 3.3 -- -- -- -- 0 854.5 -0.2 73
2020-04-04 02:00:00 3.7 -- -- -- -- 0 854.3 -0.5 71
2020-04-04 01:00:00 4.5 -- -- -- -- 0 854.8 0.4 69
2020-04-04 00:00:00 4.5 -- -- -- -- 0 854.7 0.9 72
2020-04-03 23:00:00 5 -- -- -- -- 0 854.8 1.2 71
2020-04-03 22:00:00 5.6 -- -- -- -- 0 854.4 1.6 69
2020-04-03 21:00:00 5.7 -- -- -- -- 0 853.8 0.5 49
2020-04-03 20:00:00 8.8 -- -- -- -- 0 853.6 0.6 40
2020-04-03 19:00:00 11.8 -- -- -- -- 0 852.8 -0.6 38
2020-04-03 18:00:00 12.1 -- -- -- -- 0 853.3 -0.2 38
2020-04-03 17:00:00 11.1 -- -- -- -- 0 853 -1.3 37
2020-04-03 16:00:00 10.2 -- -- -- -- 0 853.4 -0.9 36
2020-04-03 15:00:00 9.4 -- -- -- -- 0 853.5 -0.8 37
2020-04-03 14:00:00 8.3 -- -- -- -- 0 854.3 0.4 40
2020-04-03 13:00:00 7.5 -- -- -- -- 0 854.3 0.4 45
2020-04-03 12:00:00 5.8 -- -- -- -- 0 854.3 0.8 48
2020-04-03 11:00:00 4.4 -- -- -- -- 0.1 853.9 0.6 49
2020-04-03 10:00:00 3 -- -- -- -- 0 853.9 0.7 57
2020-04-03 09:00:00 -1.3 -- -- -- -- 0 853.5 0.5 71
2020-04-03 08:00:00 -1.6 -- -- -- -- 0 853.3 0.7 73
2020-04-03 07:00:00 -1.9 -- -- -- -- 0 853.2 0.4 81
2020-04-03 06:00:00 -1.8 -- -- -- -- 0 853 -0.2 92
2020-04-03 05:00:00 -1.9 -- -- -- -- 0 852.6 -0.2 95
2020-04-03 04:00:00 -1.7 -- -- -- -- 0 852.8 -0.7 98
2020-04-03 03:00:00 -1 -- -- -- -- 0 853.2 -0.2 97
2020-04-03 02:00:00 -0.3 -- -- -- -- 0 852.8 -0.2 96
2020-04-03 01:00:00 0.7 -- -- -- -- 0 853.5 0.9 94
2020-04-03 00:00:00 1.5 -- -- -- -- 0 853.4 1.8 93
2020-04-02 23:00:00 2.2 -- -- -- -- 0 853 2 96
2020-04-02 22:00:00 2.5 -- -- -- -- 0 852.6 1.6 97
2020-04-02 21:00:00 3.2 -- -- -- -- 0 851.6 1.3 97
2020-04-02 20:00:00 3.8 -- -- -- -- 0.3 851 0.8 97
2020-04-02 19:00:00 4.1 -- -- -- -- 0.8 851 0.7 93
2020-04-02 18:00:00 6.7 -- -- -- -- 0 850.3 0.1 84
2020-04-02 17:00:00 5.9 -- -- -- -- 0 850.2 -0.1 86
2020-04-02 16:00:00 5.4 -- -- -- -- 0.2 850.3 0 89
2020-04-02 15:00:00 5.3 -- -- -- -- 0 850.2 0.1 87
2020-04-02 14:00:00 6.3 -- -- -- -- 0 850.3 0.2 79
2020-04-02 13:00:00 4.1 -- -- -- -- 0 850.3 0.6 91
2020-04-02 12:00:00 4.6 -- -- -- -- 0 850.1 1 79
2020-04-02 11:00:00 3.7 -- -- -- -- 0 850.1 1.2 85
2020-04-02 10:00:00 2.1 -- -- -- -- 0 849.7 1.2 87
2020-04-02 09:00:00 -0.4 -- -- -- -- 0 849.1 0.7 95
2020-04-02 08:00:00 -1.1 -- -- -- -- 0 848.9 0.4 95
2020-04-02 07:00:00 -0.9 -- -- -- -- 0 848.5 -0.5 94
2020-04-02 06:00:00 -0.7 -- -- -- -- 0 848.4 -1 84
2020-04-02 05:00:00 -0.4 -- -- -- -- 0 848.5 -1.2 85
2020-04-02 04:00:00 0.5 -- -- -- -- 0 849 -0.9 85
2020-04-02 03:00:00 0.6 -- -- -- -- 0 849.4 -0.6 89
2020-04-02 02:00:00 1 -- -- -- -- 0 849.7 -0.1 87
2020-04-02 01:00:00 0.7 -- -- -- -- 0 849.9 0.1 84
2020-04-02 00:00:00 1.5 -- -- -- -- 0 850 0.9 87
2020-04-01 23:00:00 2.2 -- -- -- -- 0 849.8 1 86
2020-04-01 22:00:00 3.9 -- -- -- -- 0 849.8 1.3 89
2020-04-01 21:00:00 3.7 -- -- -- -- 0 849.1 0.9 95
2020-04-01 20:00:00 4.4 -- -- -- -- 0 848.8 0.7 90
2020-04-01 19:00:00 5.2 -- -- -- -- 0 848.5 -0.1 81
2020-04-01 18:00:00 6.1 -- -- -- -- 0 848.2 -0.6 81
2020-04-01 17:00:00 5.9 -- -- -- -- 0.1 848.1 -1 90
2020-04-01 16:00:00 5.7 -- -- -- -- 0.1 848.6 -0.1 93
2020-04-01 15:00:00 4.1 -- -- -- -- 1.3 848.8 -0.8 95
2020-04-01 14:00:00 5.3 -- -- -- -- 0.2 849.1 -0.1 85
2020-04-01 13:00:00 6.5 -- -- -- -- 0 848.7 -0.1 81
2020-04-01 12:00:00 4.7 -- -- -- -- 0 849.6 0.9 98
2020-04-01 11:00:00 4.3 -- -- -- -- 0.3 849.2 1 98
2020-04-01 10:00:00 3.3 -- -- -- -- 0.2 848.8 1 99
2020-04-01 09:00:00 2.9 -- -- -- -- 0.1 848.7 0.8 99
2020-04-01 08:00:00 2.4 -- -- -- -- 0 848.2 0.6 99
2020-04-01 07:00:00 2.4 -- -- -- -- 0.2 847.8 -0.2 98
2020-04-01 06:00:00 2.3 -- -- -- -- 0.2 847.9 -0.1 97
2020-04-01 05:00:00 2.1 -- -- -- -- 0.6 847.6 0 97
2020-04-01 04:00:00 2.7 -- -- -- -- 0.3 848 0.4 97
2020-04-01 03:00:00 2.3 -- -- -- -- 0 848 0.8 96
2020-04-01 02:00:00 2.2 -- -- -- -- 0.7 847.6 0.2 95
2020-04-01 01:00:00 3 -- -- -- -- 0.1 847.6 1 95
2020-04-01 00:00:00 3.2 -- -- -- -- 2.7 847.2 0.8 94
2020-03-31 23:00:00 2.7 -- -- -- -- 7.5 847.4 1.2 95
2020-03-31 22:00:00 3.6 -- -- -- -- 0.6 846.6 1.4 95
2020-03-31 21:00:00 3.7 -- -- -- -- 0.8 846.4 1.6 95
2020-03-31 20:00:00 3.2 -- -- -- -- 5.3 846.2 2 95
2020-03-31 19:00:00 3.6 -- -- -- -- 0.2 845.2 0.8 95
2020-03-31 18:00:00 3.9 -- -- -- -- 0.4 844.8 -0.2 94
2020-03-31 17:00:00 1.7 -- -- -- -- 3.3 844.2 -0.3 94
2020-03-31 16:00:00 2.6 -- -- -- -- 1.2 844.4 -0.3 93
2020-03-31 15:00:00 1.9 -- -- -- -- 1.6 845 0.5 93
2020-03-31 14:00:00 2 -- -- -- -- 3.3 844.5 -0.2 90
2020-03-31 13:00:00 1.2 -- -- -- -- 2.7 844.7 0.8 91
2020-03-31 12:00:00 0.7 -- -- -- -- 0.1 844.5 0.8 91
2020-03-31 11:00:00 0.6 -- -- -- -- 0 844.7 1.3 90
2020-03-31 10:00:00 0.1 -- -- -- -- 0 843.9 0.3 91
2020-03-31 09:00:00 -0.3 -- -- -- -- 0 843.7 -0.3 93
2020-03-31 08:00:00 -0.3 -- -- -- -- 0 843.4 -0.9 90
2020-03-31 07:00:00 -0.8 -- -- -- -- 0 843.6 -1.3 91
2020-03-31 06:00:00 -2 -- -- -- -- 0 844 -1.8 94
2020-03-31 05:00:00 -2.2 -- -- -- -- 0 844.3 -2.1 96
2020-03-31 04:00:00 -3 -- -- -- -- 0 844.9 -2.4 95
2020-03-31 03:00:00 -3.4 -- -- -- -- 0 845.8 -1.7 97
2020-03-31 02:00:00 -3.5 -- -- -- -- 0 846.4 -1.3 97
2020-03-31 01:00:00 -3.4 -- -- -- -- 0 847.3 -0.8 97
2020-03-31 00:00:00 -2.9 -- -- -- -- 0 847.5 -0.4 97
2020-03-30 23:00:00 -2.3 -- -- -- -- 0 847.7 -0.4 96
2020-03-30 22:00:00 -1.6 -- -- -- -- 0 848.1 0 89
2020-03-30 21:00:00 -1.3 -- -- -- -- 0 847.9 -1 84
2020-03-30 20:00:00 -1.1 -- -- -- -- 0 848.1 -0.9 73
2020-03-30 19:00:00 -0.2 -- -- -- -- 0 848.1 -1.2 64
2020-03-30 18:00:00 -0.5 -- -- -- -- 0 848.9 -1.1 62
2020-03-30 17:00:00 0.3 -- -- -- -- 0 849 -1.3 65
2020-03-30 16:00:00 0.5 -- -- -- -- 0.8 849.3 -1.7 78
2020-03-30 15:00:00 -2.2 -- -- -- -- 0 850 -1.5 89
2020-03-30 14:00:00 -3.3 -- -- -- -- 0 850.3 -1.1 98
2020-03-30 13:00:00 -3.6 -- -- -- -- 0 851 0.2 99
2020-03-30 12:00:00 -3.4 -- -- -- -- 0 851.5 0.5 99
2020-03-30 11:00:00 -3.2 -- -- -- -- 0 851.4 0.6 99
2020-03-30 10:00:00 -2.8 -- -- -- -- 0 850.8 0.3 99
2020-03-30 09:00:00 -2.6 -- -- -- -- 0 851 -0.1 99
2020-03-30 08:00:00 -1.9 -- -- -- -- 0 850.8 -0.3 99
2020-03-30 07:00:00 -1.2 -- -- -- -- 0 850.5 -1.4 99
2020-03-30 06:00:00 -0.7 -- -- -- -- 0 851.1 -1.2 99
2020-03-30 05:00:00 -0.4 -- -- -- -- 0 851.1 -1.7 99
2020-03-30 04:00:00 -0.2 -- -- -- -- 0 851.9 -1.2 98
2020-03-30 03:00:00 0 -- -- -- -- 0 852.3 -1.6 96
2020-03-30 02:00:00 0.7 -- -- -- -- 0 852.8 -0.7 94
2020-03-30 01:00:00 1.2 -- -- -- -- 0 853.1 -0.7 87
2020-03-30 00:00:00 1.9 -- -- -- -- 0 853.9 -0.2 81
2020-03-29 23:00:00 3 -- -- -- -- 0 853.5 0.1 77
2020-03-29 22:00:00 4.1 -- -- -- -- 0 853.8 0.5 67
2020-03-29 21:00:00 4.9 -- -- -- -- 0 854.1 0.6 57
2020-03-29 20:00:00 7.9 -- -- -- -- 0 853.4 -0.2 48
2020-03-29 19:00:00 9.5 -- -- -- -- 0 853.3 -0.9 46
2020-03-29 18:00:00 11.9 -- -- -- -- 0 853.5 -1.1 44
2020-03-29 17:00:00 12.5 -- -- -- -- 0 853.6 -1.5 44
2020-03-29 16:00:00 12.1 -- -- -- -- 0 854.2 -1.7 45
2020-03-29 15:00:00 12.3 -- -- -- -- 0 854.6 -1.1 44
2020-03-29 14:00:00 11.4 -- -- -- -- 0 855.1 -0.7 47
2020-03-29 13:00:00 10.3 -- -- -- -- 0 855.9 0.3 54
2020-03-29 12:00:00 9.3 -- -- -- -- 0 855.7 -0.3 55
2020-03-29 11:00:00 8.2 -- -- -- -- 0 855.8 0 58
2020-03-29 10:00:00 7.3 -- -- -- -- 0 855.6 -0.1 61
2020-03-29 09:00:00 2.4 -- -- -- -- 0 856 0.4 73
2020-03-29 08:00:00 2 -- -- -- -- 0 855.8 0 73
2020-03-29 07:00:00 1.9 -- -- -- -- 0 855.7 -0.3 73
2020-03-29 06:00:00 2.5 -- -- -- -- 0 855.6 -0.9 72
2020-03-29 05:00:00 2.4 -- -- -- -- 0 855.8 -0.8 71
2020-03-29 03:00:00 2.6 -- -- -- -- 0 856.5 0.1 70
2020-03-29 01:00:00 2.6 -- -- -- -- 0 856.6 0.2 70
2020-03-29 00:00:00 2.5 -- -- -- -- 0 856.8 0.5 70
2020-03-28 23:00:00 2.7 -- -- -- -- 0 856.4 1 70
2020-03-28 22:00:00 4.7 -- -- -- -- 0 856.4 1.6 62
2020-03-28 21:00:00 5.7 -- -- -- -- 0 856.3 1.8 58
2020-03-28 20:00:00 7.3 -- -- -- -- 0 855.4 1.2 54
2020-03-28 19:00:00 8.8 -- -- -- -- 0 854.8 0.7 48
2020-03-28 18:00:00 9.7 -- -- -- -- 0 854.5 0.4 45
2020-03-28 17:00:00 10.2 -- -- -- -- 0 854.2 0 45
2020-03-28 16:00:00 10.4 -- -- -- -- 0 854.1 -0.4 45
2020-03-28 15:00:00 10.5 -- -- -- -- 0 854.1 -0.8 45
2020-03-28 14:00:00 9.8 -- -- -- -- 0 854.2 -0.5 47
2020-03-28 13:00:00 8.7 -- -- -- -- 0 854.5 0.4 49
2020-03-28 12:00:00 8.3 -- -- -- -- 0 854.9 0.6 52
2020-03-28 11:00:00 6.9 -- -- -- -- 0 854.7 0.7 59
2020-03-28 10:00:00 4.5 -- -- -- -- 0 854.1 0.3 65
2020-03-28 09:00:00 3 -- -- -- -- 0 854.3 1.2 73
2020-03-28 08:00:00 -0.7 -- -- -- -- 0 854 0.9 86
2020-03-28 07:00:00 -1 -- -- -- -- 0 853.8 1.1 87
2020-03-28 06:00:00 -0.5 -- -- -- -- 0 853.1 0.3 83
2020-03-28 05:00:00 -0.3 -- -- -- -- 0 853.1 0.5 86
2020-03-28 04:00:00 -0.8 -- -- -- -- 0 852.7 0 85
2020-03-28 03:00:00 -0.7 -- -- -- -- 0 852.8 0.3 83
2020-03-28 02:00:00 -0.4 -- -- -- -- 0 852.6 0.6 80
2020-03-28 01:00:00 0.1 -- -- -- -- 0 852.7 0.9 76
2020-03-28 00:00:00 0.6 -- -- -- -- 0 852.5 1.1 72
2020-03-27 23:00:00 0.7 -- -- -- -- 0 852 1.7 72
2020-03-27 22:00:00 0.3 -- -- -- -- 0 851.8 2.1 73
2020-03-27 21:00:00 0.4 -- -- -- -- 0 851.4 2.4 67
2020-03-27 20:00:00 1.5 -- -- -- -- 0 850.3 1.3 63
2020-03-27 19:00:00 4.9 -- -- -- -- 0 849.7 1.1 52
2020-03-27 18:00:00 5.8 -- -- -- -- 0 849 0.5 51
2020-03-27 17:00:00 5.5 -- -- -- -- 0 849 0.2 52
2020-03-27 16:00:00 5.4 -- -- -- -- 0 848.6 0 50
2020-03-27 15:00:00 6.8 -- -- -- -- 0 848.5 -0.3 45
2020-03-27 14:00:00 5.7 -- -- -- -- 0 848.8 0.3 48
2020-03-27 13:00:00 6 -- -- -- -- 0 848.6 0.4 49
2020-03-27 12:00:00 5 -- -- -- -- 0 848.8 0.6 48
2020-03-27 11:00:00 4.2 -- -- -- -- 0 848.5 0.6 51
2020-03-27 10:00:00 2.1 -- -- -- -- 0 848.2 0.7 59
2020-03-27 09:00:00 0.5 -- -- -- -- 0 848.2 0.9 73
2020-03-27 08:00:00 -2 -- -- -- -- 0 847.9 0.7 86
2020-03-27 07:00:00 -2.2 -- -- -- -- 0 847.5 0.6 90
2020-03-27 06:00:00 -2.5 -- -- -- -- 0 847.3 -0.1 90
2020-03-27 05:00:00 -2.7 -- -- -- -- 0 847.2 -0.3 89
2020-03-27 04:00:00 -2.6 -- -- -- -- 0 846.9 -0.9 87
2020-03-27 03:00:00 -1.7 -- -- -- -- 0 847.4 -0.6 83
2020-03-27 02:00:00 -1.2 -- -- -- -- 0 847.5 -0.2 81
2020-03-27 01:00:00 -0.6 -- -- -- -- 0 847.8 0.3 76
2020-03-27 00:00:00 -0.1 -- -- -- -- 0 848 -0.2 73
2020-03-26 23:00:00 0.7 -- -- -- -- 0 847.7 0.1 69
2020-03-26 22:00:00 1 -- -- -- -- 0 847.5 0.3 69
2020-03-26 21:00:00 0.5 -- -- -- -- 0 848.2 1.4 72
2020-03-26 20:00:00 1.4 -- -- -- -- 0 847.6 1.4 66
2020-03-26 19:00:00 3.4 -- -- -- -- 0 847.2 0.6 58
2020-03-26 18:00:00 3.7 -- -- -- -- 0 846.8 0.5 56
2020-03-26 17:00:00 5.9 -- -- -- -- 0 846.2 -0.5 53
2020-03-26 16:00:00 6.3 -- -- -- -- 0 846.6 -0.3 53
2020-03-26 15:00:00 5.6 -- -- -- -- 0 846.3 -0.7 57
2020-03-26 14:00:00 5.3 -- -- -- -- 0 846.7 -1.2 57
2020-03-26 13:00:00 4.7 -- -- -- -- -- 846.9 -0.8 55
2020-03-26 12:00:00 3.7 -- -- -- -- -- 847 -0.7 61
2020-03-26 11:00:00 2.8 -- -- -- -- -- 847.9 -0.4 66
2020-03-26 10:00:00 1 0 Calma 0 Calma -- 847.7 -0.3 70
2020-03-26 09:00:00 -1.2 0 Calma -- -- -- 847.7 -0.3 63
2020-03-26 08:00:00 -2.6 0 Calma -- -- -- 848.3 0 58
2020-03-26 07:00:00 -3.5 0 Calma -- -- -- 848 -0.5 56
2020-03-26 06:00:00 -2.2 0 Calma -- -- -- 848 -0.8 42
2020-03-26 05:00:00 -1.6 0 Calma 0 Calma -- 848.3 -1.4 34
2020-03-26 04:00:00 -0.6 0 Calma 0 Calma -- 848.5 -1.4 30
2020-03-26 03:00:00 0.1 0 Calma -- -- -- 848.8 -1.6 33
2020-03-26 02:00:00 1.2 0 Calma -- -- -- 849.7 -0.7 33
2020-03-26 01:00:00 1.8 0 Calma -- -- -- 849.9 -0.7 33
2020-03-26 00:00:00 1.6 0 Calma -- -- -- 850.4 -0.3 53
2020-03-25 23:00:00 2.2 0 Calma -- -- -- 850.4 -0.3 55
2020-03-25 22:00:00 2.7 0 Calma -- -- -- 850.6 0.1 53
2020-03-25 21:00:00 3.7 0 Calma -- -- -- 850.7 0.3 51
2020-03-25 20:00:00 5.2 0 Calma -- -- -- 850.7 0.4 47
2020-03-25 19:00:00 7.5 0 Calma 0 Calma -- 850.5 -0.8 41
2020-03-25 18:00:00 9.3 0 Calma 0 Calma -- 850.4 -1.2 41
2020-03-25 17:00:00 9.6 0 Calma 0 Calma -- 850.3 -1.5 41
2020-03-25 16:00:00 9 0 Calma 0 Calma -- 851.3 -1.1 46
2020-03-25 15:00:00 10 0 Calma 0 Calma -- 851.6 -0.7 49
2020-03-25 14:00:00 8.6 0 Calma 0 Calma -- 851.8 -0.7 55
2020-03-25 13:00:00 9.5 0 Calma -- -- -- 852.4 -0.6 57
2020-03-25 12:00:00 8.3 0 Calma 0 Calma -- 852.3 -0.8 60
2020-03-25 11:00:00 6.9 0 Calma -- -- -- 852.5 -0.4 74
2020-03-25 10:00:00 5.7 0 Calma -- -- -- 853 0.4 81
2020-03-25 09:00:00 2.3 0 Calma -- -- -- 853.1 0.2 96
2020-03-25 08:00:00 1 0 Calma -- -- -- 852.9 -0.5 96
2020-03-25 07:00:00 0.7 0 Calma -- -- -- 852.6 -0.9 94
2020-03-25 06:00:00 0.1 0 Calma -- -- -- 852.9 -0.9 91
2020-03-25 05:00:00 1.2 0 Calma -- -- -- 853.4 -0.5 89
2020-03-25 04:00:00 1.4 0 Calma -- -- -- 853.5 -0.1 87
2020-03-25 03:00:00 1.3 0 Calma -- -- -- 853.8 0.1 87
2020-03-25 02:00:00 1.7 0 Calma -- -- -- 853.9 0 86
2020-03-25 01:00:00 1.9 0 Calma -- -- -- 853.6 -0.5 81
2020-03-25 00:00:00 2.4 0 Calma -- -- -- 853.7 -0.4 77
2020-03-24 23:00:00 2.2 0 Calma -- -- -- 853.9 0.3 80
2020-03-24 22:00:00 2.3 0 Calma -- -- -- 854.1 0.9 79
2020-03-24 21:00:00 3.6 0 Calma -- -- -- 854.1 1.3 74
2020-03-24 20:00:00 5.4 0 Calma -- -- -- 853.6 1.1 67
2020-03-24 19:00:00 7.5 0 Calma -- -- -- 853.2 0.3 59
2020-03-24 18:00:00 9.6 0 Calma -- -- -- 852.8 -0.4 54
2020-03-24 17:00:00 10.4 0 Calma -- -- -- 852.5 -1.2 53
2020-03-24 16:00:00 8.6 0 Calma 0 Calma -- 852.9 -0.9 57
2020-03-24 15:00:00 8.6 0 Calma -- -- -- 853.2 -1.1 60
2020-03-24 14:00:00 9.1 0 Calma 0 Calma -- 853.7 -- 62
2020-03-24 13:00:00 8.6 0 Calma 0 Calma -- 853.8 -0.2 64
2020-03-24 12:00:00 6.7 0 Calma -- -- -- 854.3 1 67
2020-03-24 11:00:00 -- 0 Calma 0 Calma -- -- -- 66
2020-03-24 10:00:00 7.2 0 Calma -- -- -- 854 0 66
2020-03-24 09:00:00 5 0 Calma 0 Calma -- 853.3 -0.2 72
2020-03-24 08:00:00 4.2 0 Calma -- -- -- 853.8 0.3 75
2020-03-24 07:00:00 3.2 0 Calma -- -- -- 854 -0.1 85
2020-03-24 06:00:00 3.5 0 Calma -- -- -- 853.5 0 84
2020-03-24 05:00:00 3.4 0 Calma -- -- -- 853.5 0 85
2020-03-24 04:00:00 3.3 0 Calma -- -- -- 854.1 0.6 89
2020-03-24 03:00:00 4.2 0 Calma 8 Sur -- 853.5 -0.4 85
2020-03-24 02:00:00 4.2 0 Calma 0 Calma -- 853.5 -0.6 85
2020-03-24 01:00:00 4.6 0 Calma -- -- -- 853.5 -0.1 87
2020-03-24 00:00:00 4.8 0 Calma -- -- -- 853.9 0.7 87
2020-03-23 23:00:00 4.8 0 Calma -- -- -- 854.1 0.4 85
2020-03-23 22:00:00 5 0 Calma -- -- -- 853.6 0.8 87
2020-03-23 21:00:00 4.6 0 Calma -- -- -- 853.2 0.3 84
2020-03-23 20:00:00 5.3 0 Calma -- -- -- 853.7 1.1 79
2020-03-23 19:00:00 6.2 0 Calma -- -- -- 852.8 0.8 78
2020-03-23 18:00:00 7.3 0 Calma -- -- -- 852.9 0.7 81
2020-03-23 17:00:00 7.9 0 Calma -- -- -- 852.6 -0.4 70
2020-03-23 16:00:00 9 0 Calma -- -- -- 852 -1.9 64
2020-03-23 15:00:00 8.6 0 Calma 26 Sudeste -- 852.2 -1.1 70
2020-03-23 14:00:00 6.7 8 Sudeste 24 Sudeste -- 853 0.1 80
2020-03-23 13:00:00 6.3 0 Calma 20 Sudeste -- 853.9 1.6 86
2020-03-23 12:00:00 5.9 5 Este 28 Sudeste -- 853.3 0.5 83
2020-03-23 11:00:00 5.8 5 Sudeste 23 Sudeste -- 852.9 1 79
2020-03-23 10:00:00 5 0 Calma -- -- -- 852.3 0.2 81
2020-03-23 09:00:00 4.7 0 Calma -- -- -- 852.8 1.2 85
2020-03-23 08:00:00 3.6 0 Calma -- -- -- 851.9 0.6 92
2020-03-23 07:00:00 3.4 0 Calma -- -- -- 852.1 0.6 94
2020-03-23 06:00:00 3.6 0 Calma -- -- -- 851.6 0.4 93
2020-03-23 05:00:00 3.8 0 Calma -- -- -- 851.3 -0.1 95
2020-03-23 04:00:00 3.9 0 Calma -- -- -- 851.5 0.1 95
2020-03-23 03:00:00 3.8 0 Calma -- -- -- 851.2 -0.6 94
2020-03-23 02:00:00 4.1 0 Calma -- -- -- 851.4 -0.2 90
2020-03-23 01:00:00 4.1 0 Calma -- -- -- 851.4 0.1 88
2020-03-23 00:00:00 4.5 0 Calma -- -- -- 851.8 1 79
2020-03-22 23:00:00 4.7 0 Calma -- -- -- 851.6 1.2 71
2020-03-22 22:00:00 5 0 Calma -- -- -- 851.3 1.3 71
2020-03-22 21:00:00 5.1 0 Calma -- -- -- 850.8 1.5 74
2020-03-22 20:00:00 5.4 0 Calma -- -- -- 850.4 1.6 72
2020-03-22 19:00:00 6.3 0 Calma -- -- -- 850 1.2 70
2020-03-22 18:00:00 7 0 Calma 0 Calma -- 849.3 -0.1 74
2020-03-22 17:00:00 6.5 0 Calma -- -- -- 848.8 -0.8 78
2020-03-22 16:00:00 6 0 Calma -- -- -- 848.8 -1 96
2020-03-22 15:00:00 5.1 0 Calma -- -- -- 849.4 -0.3 97
2020-03-22 14:00:00 5.4 0 Calma -- -- -- 849.6 -0.1 97
2020-03-22 13:00:00 4.6 0 Calma -- -- -- 849.8 0 98
2020-03-22 12:00:00 4.4 0 Calma -- -- -- 849.7 0.3 98
2020-03-22 11:00:00 4 0 Calma -- -- -- 849.7 0.7 98
2020-03-22 10:00:00 3.4 0 Calma -- -- -- 849.8 1.4 97
2020-03-22 09:00:00 2.4 0 Calma -- -- -- 849.4 0.9 99
2020-03-22 08:00:00 1.8 0 Calma -- -- -- 849 0.6 99
2020-03-22 07:00:00 1.5 0 Calma -- -- -- 848.4 -0.1 98
2020-03-22 06:00:00 1.8 0 Calma -- -- -- 848.5 -0.6 99
2020-03-22 05:00:00 1.8 0 Calma -- -- -- 848.4 -0.6 99
2020-03-22 04:00:00 1.8 0 Calma -- -- -- 848.5 -0.5 99
2020-03-22 03:00:00 1.9 0 Calma -- -- -- 849.1 -0.6 99
2020-03-22 02:00:00 1.8 0 Calma -- -- -- 849 -0.2 99
2020-03-22 01:00:00 1.7 0 Calma -- -- -- 849 -0.6 99
2020-03-22 00:00:00 1.7 0 Calma -- -- -- 849.7 0.3 99
2020-03-21 23:00:00 1.7 0 Calma -- -- -- 849.2 0.1 99
2020-03-21 22:00:00 1.8 0 Calma -- -- -- 849.6 1 98
2020-03-21 21:00:00 1.9 0 Calma -- -- -- 849.4 1 98
2020-03-21 20:00:00 2.1 0 Calma -- -- -- 849.1 0.6 98
2020-03-21 19:00:00 2.7 0 Calma 0 Calma -- 848.6 0.3 99
2020-03-21 18:00:00 4.1 0 Calma -- -- -- 848.4 -0.4 99
2020-03-21 17:00:00 4.6 0 Calma -- -- -- 848.5 -0.6 99
2020-03-21 16:00:00 4.6 0 Calma 18 Sur -- 848.3 -1.4 99
2020-03-21 15:00:00 4.3 8 Sur 25 Sur -- 848.8 -1.2 99
2020-03-21 14:00:00 4.4 2 Sur 21 Sur -- 849.1 -0.3 99
2020-03-21 13:00:00 3.8 0 Calma 0 Calma -- 849.7 -0.2 99
2020-03-21 12:00:00 3.7 0 Calma 26 Sur -- 850 0.4 99
2020-03-21 11:00:00 3.5 8 Sur 26 Sur -- 849.4 0 99
2020-03-21 10:00:00 3.6 6 Sur 25 Sur -- 849.9 -0.1 97
2020-03-21 09:00:00 3.1 17 Sur 31 Sur -- 849.6 -0.8 99
2020-03-21 08:00:00 2.9 16 Sur 26 Sur -- 849.4 -0.7 99
2020-03-21 07:00:00 2.9 13 Sur 20 Sur -- 850 -0.3 99
2020-03-21 06:00:00 3 13 Sur 50 Sur -- 850.4 -0.7 99
2020-03-21 05:00:00 3 16 Sur 37 Sur -- 850.1 -0.9 99
2020-03-21 04:00:00 3.3 19 Sur 42 Sur -- 850.3 -0.9 99
2020-03-21 03:00:00 3.8 22 Sur 37 Sur -- 851.1 -0.6 98
2020-03-21 02:00:00 4.2 19 Sur 36 Sur -- 851 -1.1 95
2020-03-21 01:00:00 4.4 19 Sur 39 Sur -- 851.2 -1.4 92
2020-03-21 00:00:00 4.4 9 Sur 26 Sur -- 851.7 -1.1 92
2020-03-20 23:00:00 3.9 9 Sur 24 Sudoeste -- 852.1 -1.2 92
2020-03-20 22:00:00 4.2 6 Sur 20 Sur -- 852.6 -0.6 92
2020-03-20 21:00:00 4.5 0 Calma -- -- -- 852.8 -0.1 99
2020-03-20 20:00:00 4.5 0 Calma -- -- -- 853.3 0.4 99
2020-03-20 19:00:00 4.6 0 Calma -- -- -- 853.2 -0.5 98
2020-03-20 18:00:00 4.8 0 Calma -- -- -- 852.9 -0.2 97
2020-03-20 17:00:00 4.9 0 Calma -- -- -- 852.9 -0.6 96
2020-03-20 16:00:00 5 0 Calma 24 Sur -- 853.7 0.2 96
2020-03-20 15:00:00 4.7 13 Sur 30 Sur -- 853.1 -1.3 99
2020-03-20 14:00:00 4.3 14 Sur 28 Sur -- 853.5 -0.7 99
2020-03-20 13:00:00 4 12 Sur 23 Sur -- 853.5 -0.4 99
2020-03-20 12:00:00 3.8 10 Sur 23 Sur -- 854.4 1 99
2020-03-20 11:00:00 3.5 10 Sur 22 Sur -- 854.2 0.7 99
2020-03-20 10:00:00 3.5 13 Sur 26 Sur -- 853.9 0.1 99
2020-03-20 09:00:00 3.8 12 Sur 21 Sur -- 853.4 0.4 99
2020-03-20 08:00:00 3.7 9 Sur 22 Sur -- 853.5 -0.2 99
2020-03-20 07:00:00 3.7 10 Sur 26 Sur -- 853.8 0.4 99
2020-03-20 06:00:00 3.9 9 Sur 23 Sur -- 853 -1.2 99
2020-03-20 05:00:00 4.3 11 Sur 26 Sur -- 853.7 -0.5 99
2020-03-20 04:00:00 4.5 13 Sur 29 Sur -- 853.4 -1.2 99
2020-03-20 03:00:00 4.6 15 Sur 33 Sur -- 854.2 -0.5 98
2020-03-20 02:00:00 4.7 14 Sur 31 Sur -- 854.2 -1.4 96
2020-03-20 01:00:00 4.8 17 Sur 33 Sudeste -- 854.6 -0.8 96
2020-03-20 00:00:00 5 17 Sur 35 Sur -- 854.7 -0.2 95
2020-03-19 23:00:00 5.5 16 Sur 31 Sur -- 855.6 -0.1 94
2020-03-19 22:00:00 6.4 13 Sur 23 Sur -- 855.4 0 84
2020-03-19 21:00:00 6.9 9 Sur 23 Sur -- 854.9 -0.4 74
2020-03-19 20:00:00 7.2 10 Sur 22 Sur -- 855.7 0.2 70
2020-03-19 19:00:00 8.8 11 Sur 25 Sur -- 855.4 -0.3 65
2020-03-19 18:00:00 10.3 12 Sur 23 Sur -- 855.3 -0.8 53
2020-03-19 17:00:00 11.6 12 Sur 25 Sur -- 855.5 -1.5 53
2020-03-19 16:00:00 11.2 13 Sur 25 Sur -- 855.7 -2.1 53
2020-03-19 15:00:00 11.2 10 Sur 23 Sur -- 856.1 -1.8 64
2020-03-19 14:00:00 10.1 12 Sur 25 Sur -- 857 -1.4 68
2020-03-19 13:00:00 9 13 Sur 26 Sur -- 857.8 -0.3 78
2020-03-19 12:00:00 9 13 Sur 24 Sur -- 857.9 -0.2 82
2020-03-19 11:00:00 6.5 11 Sur 21 Sur -- 858.4 0.5 94
2020-03-19 10:00:00 6 13 Sur 22 Sudoeste -- 858.1 0 99
2020-03-19 09:00:00 5.4 15 Sudoeste 22 Sudoeste -- 858.1 -0.4 99
2020-03-19 08:00:00 5 10 Sudoeste 19 Sudoeste -- 857.9 -0.3 99
2020-03-19 07:00:00 4.4 2 Sur 16 Sudoeste -- 858.1 -0.7 98
2020-03-19 06:00:00 5.1 0 Calma 15 Sur -- 858.5 -0.9 95
2020-03-19 05:00:00 6 0 Calma 14 Sudoeste -- 858.2 -2.1 91
2020-03-19 04:00:00 6.4 0 Calma 18 Sudoeste -- 858.8 -1.6 88
2020-03-19 03:00:00 7.4 5 Sur 22 Sudoeste -- 859.4 -1.3 83
2020-03-19 02:00:00 7.9 8 Sur 18 Sur -- 860.3 -1.2 81
2020-03-19 01:00:00 7.6 3 Sur 14 Sur -- 860.4 -0.8 84
2020-03-19 00:00:00 7.9 2 Sur 12 Sur -- 860.7 -0.4 83
2020-03-18 23:00:00 7.5 0 Calma 9 Sudoeste -- 861.5 0.1 84
2020-03-18 22:00:00 7.6 0 Calma 10 Sudeste -- 861.2 0.5 86
2020-03-18 21:00:00 8.2 0 Calma -- -- -- 861.1 0 83
2020-03-18 20:00:00 8.4 0 Calma -- -- -- 861.4 0.6 81
2020-03-18 19:00:00 10.7 0 Calma -- -- -- 860.7 -0.6 71
2020-03-18 18:00:00 11.6 0 Calma 16 Sur -- 861.1 -0.1 67
2020-03-18 17:00:00 12.8 6 Sur 16 Sur -- 860.8 -0.8 60
2020-03-18 16:00:00 13.2 5 Sudoeste 18 Sudoeste -- 861.3 -1 58
2020-03-18 15:00:00 13.3 10 Sur 20 Sur -- 861.2 -1.8 57
2020-03-18 14:00:00 13.9 6 Sur 19 Sudoeste -- 861.6 -1.1 55
2020-03-18 13:00:00 13.6 7 Sur 19 Sudoeste -- 862.3 -0.4 59
2020-03-18 12:00:00 12.2 6 Sur 18 Sudoeste -- 863 0.2 62
2020-03-18 11:00:00 11.5 3 Sur 16 Sudoeste -- 862.7 0.2 65
2020-03-18 10:00:00 8.1 9 Sudoeste 17 Sudoeste -- 862.7 -0.3 71
2020-03-18 09:00:00 8.6 0 Calma 22 Sudeste -- 862.8 0.1 64
2020-03-18 08:00:00 8.7 4 Sudeste 23 Sudeste -- 862.5 0.1 61
2020-03-18 07:00:00 8.8 5 Sudeste 24 Sudeste -- 863 0.6 61
2020-03-18 06:00:00 8.8 3 Sudeste 16 Sudeste -- 862.7 -0.3 63
2020-03-18 05:00:00 6.4 0 Calma 9 Sur -- 862.4 -0.7 80
2020-03-18 04:00:00 6.1 0 Calma -- -- -- 862.4 -0.8 84
2020-03-18 03:00:00 6.1 0 Calma 10 Sudeste -- 863 -0.8 84
2020-03-18 02:00:00 5.2 0 Calma 13 Sur -- 863.1 -0.7 92
2020-03-18 01:00:00 6.1 3 Sur 20 Sudeste -- 863.2 -0.2 86
2020-03-18 00:00:00 6.7 5 Sudeste 23 Sudeste -- 863.8 0.6 84
2020-03-17 23:00:00 7.2 5 Sudeste 27 Este -- 863.8 1.3 81
2020-03-17 22:00:00 7.1 7 Sudeste 33 Sudeste -- 863.4 1.4 84
2020-03-17 21:00:00 7.3 12 Sudeste 31 Sudeste -- 863.2 1.6 87
2020-03-17 20:00:00 7.4 11 Sudeste 31 Sudeste -- 862.5 1.4 85
2020-03-17 19:00:00 7.6 8 Sudeste 30 Sur -- 862 1.5 82
2020-03-17 18:00:00 7.6 12 Sudeste 37 Sudeste -- 861.6 1.4 81
2020-03-17 17:00:00 8.5 16 Sur 42 Sur -- 861.1 0.7 81
2020-03-17 16:00:00 9.2 16 Sur 43 Sudeste -- 860.5 0.3 77
2020-03-17 15:00:00 10 14 Sur 48 Sudeste -- 860.2 -0.4 72
2020-03-17 14:00:00 9.4 19 Sudeste 46 Sur -- 860.4 0.5 75
2020-03-17 13:00:00 8.5 17 Sudeste 48 Sudeste -- 860.2 0.7 78
2020-03-17 12:00:00 6.7 14 Sudeste 35 Sudeste -- 860.6 2 84
2020-03-17 11:00:00 6.7 11 Sudeste 36 Sudeste -- 859.9 1.1 84
2020-03-17 10:00:00 5.6 12 Sudeste 36 Sudeste -- 859.5 1.7 85
2020-03-17 09:00:00 4.5 13 Sudeste 37 Sudeste -- 858.6 1.5 90
2020-03-17 08:00:00 4.5 10 Sudeste 34 Sudeste -- 858.8 2.2 88
2020-03-17 07:00:00 4 8 Este 35 Sudeste -- 857.8 2 87
2020-03-17 06:00:00 3.7 6 Este 34 Este -- 857.1 1.1 88
2020-03-17 05:00:00 4.6 10 Este 34 Sudeste -- 856.6 0.6 88
2020-03-17 04:00:00 3.4 0 Calma -- -- -- 855.8 0.4 96
2020-03-17 03:00:00 -0.3 0 Calma -- -- -- 856 1.1 99
2020-03-17 02:00:00 -0.4 0 Calma -- -- -- 856 2 99
2020-03-17 01:00:00 -0.1 0 Calma -- -- -- 855.4 1.9 99
2020-03-17 00:00:00 0.7 0 Calma -- -- -- 854.9 2 97
2020-03-16 23:00:00 3.2 0 Calma 0 Calma -- 854 1.9 89
2020-03-16 22:00:00 2.2 0 Calma 0 Calma -- 853.5 1.9 91
2020-03-16 21:00:00 2.4 0 Calma -- -- -- 852.9 2.5 91
2020-03-16 20:00:00 1.6 0 Calma 0 Calma -- 852.1 1.3 93
2020-03-16 19:00:00 1.3 0 Calma -- -- -- 851.6 1.4 96
2020-03-16 18:00:00 0.4 0 Calma -- -- -- 850.4 1 99
2020-03-16 17:00:00 0.3 0 Calma -- -- -- 850.8 2.2 98
2020-03-16 16:00:00 0 0 Calma -- -- -- 850.2 2.1 96
2020-03-16 15:00:00 1.2 0 Calma -- -- -- 849.4 1.1 91
2020-03-16 14:00:00 2.1 0 Calma 0 Calma -- 848.6 0.1 95
2020-03-16 13:00:00 1.1 0 Calma 0 Calma -- 848.1 -0.2 99
2020-03-16 12:00:00 1.4 0 Calma 0 Calma -- 848.3 1 97
2020-03-16 11:00:00 1.3 0 Calma -- -- -- 848.5 1.7 96
2020-03-16 10:00:00 0.1 0 Calma -- -- -- 848.3 2.4 99
2020-03-16 09:00:00 -1.1 0 Calma 0 Calma -- 847.3 1.2 99
2020-03-16 08:00:00 -1.4 0 Calma 0 Calma -- 846.8 0.4 99
2020-03-16 07:00:00 -1.1 0 Calma 0 Calma -- 845.9 -1.4 99
2020-03-16 06:00:00 -0.7 0 Calma -- -- -- 846.1 -1.4 99
2020-03-16 05:00:00 -0.4 0 Calma 0 Calma -- 846.4 -1 99
2020-03-16 04:00:00 0 0 Calma 9 Norte -- 847.3 -0.4 99
2020-03-16 03:00:00 -0.1 6 Noroeste 29 Oeste -- 847.5 -1 99
2020-03-16 02:00:00 1.7 0 Calma 19 Noroeste -- 847.4 -1.8 99
2020-03-16 01:00:00 2.8 4 Noroeste 28 Noroeste -- 847.7 -1.3 99
2020-03-16 00:00:00 3.8 0 Calma 22 Sudoeste -- 848.5 -0.4 92
2020-03-15 23:00:00 5.7 9 Sudoeste 23 Sudoeste -- 849.2 -0.7 96
2020-03-15 22:00:00 6.1 0 Calma 8 Sur -- 849 -0.1 94
2020-03-15 21:00:00 5.9 0 Calma 19 Sudeste -- 848.9 0.1 90
2020-03-15 20:00:00 6.4 12 Sudoeste 39 Sudoeste -- 849.9 1 88
2020-03-15 19:00:00 8 6 Sudoeste 41 Sudoeste -- 849.1 -1.3 83
2020-03-15 18:00:00 11.3 18 Sur 41 Sur -- 848.8 -1.7 69
2020-03-15 17:00:00 12.4 22 Sur 42 Sur -- 848.9 -2.5 65
2020-03-15 16:00:00 12 20 Sur 43 Sur -- 850.4 -2.5 65
2020-03-15 15:00:00 14.1 21 Sur 35 Sur -- 850.5 -2.9 60
2020-03-15 14:00:00 12.6 0 Calma 0 Calma -- 851.4 -2.1 66
2020-03-15 13:00:00 13 0 Calma -- -- -- 852.9 -1.5 64
2020-03-15 12:00:00 12 0 Calma 0 Calma -- 853.4 -0.5 65
2020-03-15 11:00:00 11.5 0 Calma -- -- -- 853.5 -0.9 58
2020-03-15 10:00:00 9.4 0 Calma -- -- -- 854.4 -0.2 57
2020-03-15 09:00:00 8.6 0 Calma -- -- -- 853.9 -0.6 60
2020-03-15 08:00:00 5.3 0 Calma -- -- -- 854.4 -0.5 66
2020-03-15 07:00:00 5.6 0 Calma -- -- -- 854.6 -0.7 64
2020-03-15 06:00:00 5.5 0 Calma -- -- -- 854.5 -1.6 64
2020-03-15 05:00:00 5.6 0 Calma -- -- -- 854.9 -1.3 66
2020-03-15 04:00:00 5.6 0 Calma -- -- -- 855.3 -1.6 70
2020-03-15 03:00:00 6.5 0 Calma -- -- -- 856.1 -1.1 70
2020-03-15 02:00:00 6.7 0 Calma -- -- -- 856.2 -0.9 68
2020-03-15 01:00:00 7.8 0 Calma -- -- -- 856.9 -0.7 62
2020-03-15 00:00:00 7.4 0 Calma -- -- -- 857.2 -0.6 66
2020-03-14 23:00:00 7.3 0 Calma -- -- -- 857.1 -0.2 62
2020-03-14 22:00:00 6.5 0 Calma -- -- -- 857.6 0.6 57
2020-03-14 21:00:00 7.3 0 Calma -- -- -- 857.8 1.2 56
2020-03-14 20:00:00 8.2 0 Calma -- -- -- 857.3 0.1 52
2020-03-14 19:00:00 11.1 0 Calma -- -- -- 857 0.1 44
2020-03-14 18:00:00 14.8 0 Calma -- -- -- 856.6 -0.7 35
2020-03-14 17:00:00 15.3 0 Calma -- -- -- 857.2 -0.6 34
2020-03-14 16:00:00 15 0 Calma -- -- -- 856.9 -1.4 40
2020-03-14 15:00:00 14.4 0 Calma -- -- -- 857.3 -1.1 43
2020-03-14 14:00:00 13.5 0 Calma -- -- -- 857.8 -0.8 49
2020-03-14 13:00:00 12.5 0 Calma -- -- -- 858.3 0 53
2020-03-14 12:00:00 11.7 0 Calma -- -- -- 858.4 0.1 52
2020-03-14 11:00:00 10.7 0 Calma -- -- -- 858.6 0.4 60
2020-03-14 10:00:00 8.1 0 Calma -- -- -- 858.3 0.6 69
2020-03-14 09:00:00 5.3 0 Calma -- -- -- 858.3 0.6 84
2020-03-14 08:00:00 2.7 0 Calma -- -- -- 858.2 1.1 84
2020-03-14 07:00:00 2.9 0 Calma -- -- -- 857.7 0.5 93
2020-03-14 06:00:00 3.2 0 Calma -- -- -- 857.7 0.2 86
2020-03-14 05:00:00 3.7 0 Calma -- -- -- 857.1 -0.6 83
2020-03-14 04:00:00 5.4 0 Calma -- -- -- 857.2 -0.7 96
2020-03-14 03:00:00 6.3 0 Calma -- -- -- 857.5 -0.4 91
2020-03-14 02:00:00 6.5 0 Calma -- -- -- 857.7 0.1 94
2020-03-14 01:00:00 7.2 0 Calma -- -- -- 857.9 0.6 96
2020-03-14 00:00:00 6.6 0 Calma -- -- -- 857.9 0.7 97
2020-03-13 23:00:00 6.7 0 Calma -- -- -- 857.6 1 96
2020-03-13 22:00:00 7.4 0 Calma -- -- -- 857.3 0.9 93
2020-03-13 21:00:00 8.6 0 Calma -- -- -- 857.2 1.3 90
2020-03-13 20:00:00 9.7 0 Calma -- -- -- 856.6 0.7 84
2020-03-13 19:00:00 11.3 0 Calma -- -- -- 856.4 0.5 80
2020-03-13 18:00:00 12.8 0 Calma -- -- -- 855.9 0.3 75
2020-03-13 17:00:00 13 0 Calma -- -- -- 855.9 -0.4 75
2020-03-13 16:00:00 13.5 0 Calma 0 Calma -- 855.9 -0.6 72
2020-03-13 15:00:00 14.1 0 Calma -- -- -- 855.6 -1.3 72
2020-03-13 14:00:00 13.7 0 Calma 3 Norte -- 856.3 -0.5 74
2020-03-13 13:00:00 13.7 0 Calma 0 Calma -- 856.5 -0.1 77
2020-03-13 12:00:00 12.6 0 Calma -- -- -- 856.9 0.3 79
2020-03-13 11:00:00 12.4 0 Calma -- -- -- 856.8 0.2 77
2020-03-13 10:00:00 11.2 0 Calma -- -- -- 856.6 0.5 75
2020-03-13 09:00:00 9.7 0 Calma -- -- -- 856.6 0.7 83
2020-03-13 08:00:00 7 0 Calma -- -- -- 856.6 0.8 84
2020-03-13 07:00:00 8.4 0 Calma -- -- -- 856.1 0 81
2020-03-13 06:00:00 9 0 Calma -- -- -- 855.9 -0.7 80
2020-03-13 05:00:00 8.6 0 Calma -- -- -- 855.8 -1.3 81
2020-03-13 04:00:00 9.2 0 Calma -- -- -- 856.1 -1.4 79
2020-03-13 03:00:00 10.1 0 Calma -- -- -- 856.6 -1.1 76
2020-03-13 02:00:00 9.7 0 Calma -- -- -- 857.1 -0.9 77
2020-03-13 01:00:00 9.7 0 Calma 0 Calma -- 857.5 -0.2 74
2020-03-13 00:00:00 10.5 0 Calma -- -- -- 857.7 0.3 69
2020-03-12 23:00:00 11.4 0 Calma -- -- -- 858 0.6 63
2020-03-12 22:00:00 12.8 0 Calma -- -- -- 857.7 0.3 58
2020-03-12 21:00:00 13.1 0 Calma 6 Sudeste -- 857.4 0.2 58
2020-03-12 20:00:00 12.8 0 Calma 5 Sudeste -- 857.4 0.6 58
2020-03-12 19:00:00 15.3 0 Calma 18 Sur -- 857.4 0 51
2020-03-12 18:00:00 17 11 Sur 23 Sur -- 857.2 -0.8 47
2020-03-12 17:00:00 18.7 13 Sur 30 Sur -- 856.8 -2.1 44
2020-03-12 16:00:00 18.9 16 Sur 31 Sur -- 857.4 -2.2 39
2020-03-12 15:00:00 19.3 8 Sur 30 Sur -- 858 -1.6 39
2020-03-12 14:00:00 19.5 0 Calma 0 Calma -- 858.9 -1.2 41
2020-03-12 13:00:00 19.1 0 Calma 0 Calma -- 859.6 -0.3 42
2020-03-12 12:00:00 18.4 0 Calma 0 Calma -- 859.6 -0.6 46
2020-03-12 11:00:00 17.3 0 Calma 0 Calma -- 860.1 0.1 46
2020-03-12 10:00:00 16.7 0 Calma -- -- -- 859.9 0 51
2020-03-12 09:00:00 14.2 0 Calma -- -- -- 860.2 0.3 60
2020-03-12 08:00:00 11.5 0 Calma -- -- -- 860 0.1 63
2020-03-12 07:00:00 10 0 Calma -- -- -- 859.9 -0.5 71
2020-03-12 06:00:00 9.8 0 Calma -- -- -- 859.9 -1.7 73
2020-03-12 05:00:00 10.7 0 Calma -- -- -- 859.9 -1.5 63
2020-03-12 04:00:00 10.3 0 Calma -- -- -- 860.4 -1.3 70
2020-03-12 03:00:00 10.4 0 Calma -- -- -- 861.6 -0.6 72
2020-03-12 02:00:00 11.1 0 Calma -- -- -- 861.4 -1.3 71
2020-03-12 01:00:00 11.4 0 Calma -- -- -- 861.7 -0.5 71
2020-03-12 00:00:00 11.2 0 Calma -- -- -- 862.2 0.2 71
2020-03-11 23:00:00 11.5 0 Calma -- -- -- 862.7 0.7 71
2020-03-11 22:00:00 11.6 0 Calma -- -- -- 862.2 0.1 70
2020-03-11 21:00:00 11.8 0 Calma -- -- -- 862 0.4 71
2020-03-11 20:00:00 13.3 0 Calma -- -- -- 862 0.4 67
2020-03-11 19:00:00 16.1 0 Calma -- -- -- 862.1 -0.5 52
2020-03-11 18:00:00 18.4 0 Calma -- -- -- 861.6 -0.7 38
2020-03-11 17:00:00 20.5 0 Calma -- -- -- 861.6 -1 34
2020-03-11 16:00:00 21.2 0 Calma -- -- -- 862.6 -1 34
2020-03-11 15:00:00 20.3 0 Calma -- -- -- 862.3 -1.4 35
2020-03-11 14:00:00 19.5 0 Calma 0 Calma -- 862.6 -0.8 35
2020-03-11 13:00:00 19.3 0 Calma -- -- -- 863.6 0 38
2020-03-11 12:00:00 19.1 0 Calma 0 Calma -- 863.7 0.4 38
2020-03-11 11:00:00 17.6 0 Calma -- -- -- 863.4 0.3 38
2020-03-11 10:00:00 15.5 0 Calma -- -- -- 863.6 0.9 51
2020-03-11 09:00:00 11.1 0 Calma -- -- -- 863.3 0.3 70
2020-03-11 08:00:00 7.8 0 Calma -- -- -- 863.1 0 81
2020-03-11 07:00:00 7.4 0 Calma -- -- -- 862.7 -0.7 81
2020-03-11 06:00:00 7.5 0 Calma -- -- -- 863 -0.8 82
2020-03-11 05:00:00 7.7 0 Calma -- -- -- 863.1 -1.1 82
2020-03-11 04:00:00 8.6 0 Calma -- -- -- 863.4 -0.7 80
2020-03-11 03:00:00 8.5 0 Calma -- -- -- 863.8 -0.9 75
2020-03-11 02:00:00 9.7 0 Calma -- -- -- 864.2 -0.7 72
2020-03-11 01:00:00 9.5 0 Calma -- -- -- 864.1 -0.4 77
2020-03-11 00:00:00 9.3 0 Calma -- -- -- 864.7 0.3 73
2020-03-10 23:00:00 11 0 Calma -- -- -- 864.9 0.6 65
2020-03-10 22:00:00 10.1 0 Calma -- -- -- 864.5 0.7 60
2020-03-10 21:00:00 10.5 0 Calma -- -- -- 864.4 0.8 56
2020-03-10 20:00:00 11.7 0 Calma -- -- -- 864.3 0.4 49
2020-03-10 19:00:00 14.7 0 Calma -- -- -- 863.8 -0.2 41
2020-03-10 18:00:00 17.8 0 Calma -- -- -- 863.6 -0.3 37
2020-03-10 17:00:00 17.7 0 Calma 0 Calma -- 863.9 -0.3 36
2020-03-10 16:00:00 18.4 0 Calma -- -- -- 864 -0.5 38
2020-03-10 15:00:00 16.1 0 Calma -- -- -- 863.9 -0.8 43
2020-03-10 14:00:00 16.1 0 Calma -- -- -- 864.2 -0.7 44
2020-03-10 13:00:00 14.7 0 Calma -- -- -- 864.5 0 46
2020-03-10 12:00:00 13.2 0 Calma 0 Calma -- 864.7 0.5 49
2020-03-10 11:00:00 11.3 0 Calma 0 Calma -- 864.9 1 48
2020-03-10 10:00:00 9.8 0 Calma 0 Calma -- 864.5 0.6 51
2020-03-10 09:00:00 7.4 0 Calma 0 Calma -- 864.2 0.7 58
2020-03-10 08:00:00 5.4 0 Calma 0 Calma -- 863.9 0.4 62
2020-03-10 07:00:00 4.9 0 Calma -- -- -- 863.9 0.5 68
2020-03-10 06:00:00 4 0 Calma 0 Calma -- 863.5 0 73
2020-03-10 05:00:00 3.2 0 Calma 13 Norte -- 863.5 0.3 73
2020-03-10 04:00:00 3.7 0 Calma 16 Norte -- 863.4 -0.1 70
2020-03-10 03:00:00 3.1 0 Calma 0 Calma -- 863.5 0 72
2020-03-10 02:00:00 2.3 0 Calma 19 Norte -- 863.2 -0.3 72
2020-03-10 01:00:00 3.1 4 Norte 26 Noroeste -- 863.5 0.7 66
2020-03-10 00:00:00 3 9 Norte 25 Noroeste -- 863.5 0.6 67
2020-03-09 23:00:00 3.6 9 Norte 27 Norte -- 863.5 1.4 66
2020-03-09 22:00:00 3.9 9 Norte 23 Noroeste -- 862.8 0.9 67
2020-03-09 21:00:00 3.7 4 Norte 26 Noroeste -- 862.9 1.1 71
2020-03-09 20:00:00 4.1 3 Noroeste 29 Norte -- 862.1 0.9 69
2020-03-09 19:00:00 5.5 15 Norte 41 Noroeste -- 861.9 0.4 59
2020-03-09 18:00:00 7.1 13 Norte 39 Noroeste -- 861.8 0.1 56
2020-03-09 17:00:00 7.9 14 Norte 38 Noroeste -- 861.2 -1.6 53
2020-03-09 16:00:00 8.2 0 Calma 2 Norte -- 861.5 -1.7 55
2020-03-09 15:00:00 6.9 0 Calma 0 Calma -- 861.7 -1.2 60
2020-03-09 14:00:00 6.5 0 Calma -- -- -- 862.8 -0.2 68
2020-03-09 13:00:00 4.3 0 Calma 0 Calma -- 863.2 0.6 77
2020-03-09 12:00:00 2.5 0 Calma 25 Nordeste -- 862.9 0.8 88
2020-03-09 11:00:00 1.1 9 Norte 28 Norte -- 863 1.3 96
2020-03-09 10:00:00 0.6 10 Norte 32 Noroeste -- 862.6 1.2 99
2020-03-09 09:00:00 0.3 10 Norte 35 Nordeste -- 862.1 1 99
2020-03-09 08:00:00 0.6 13 Norte 37 Norte -- 861.7 0.7 99
2020-03-09 07:00:00 0.8 8 Norte 28 Norte -- 861.4 0 97
2020-03-09 06:00:00 1.2 8 Norte 33 Norte -- 861.1 -0.3 99
2020-03-09 05:00:00 1.8 7 Noroeste 30 Noroeste -- 861 -0.7 99
2020-03-09 04:00:00 2.3 7 Noroeste 29 Norte -- 861.4 -0.3 99
2020-03-09 03:00:00 2.9 8 Noroeste 41 Norte -- 861.4 -0.4 99
2020-03-09 02:00:00 3.7 5 Noroeste 32 Norte -- 861.7 -0.2 99
2020-03-09 01:00:00 4 0 Calma 0 Calma -- 861.7 -0.1 99
2020-03-09 00:00:00 4.6 0 Calma 0 Calma -- 861.8 0.5 99